FMEE/RUN METAR and TAF weather

Enter ICAO airport designator
Station Type Date Time Source
FMEE METAR 2020/07/05 16:30 UTC NOAA

FMEE 051630Z AUTO 12015KT 9999 FEW032 22/16 Q1019 NOSIG


Station Type Date Time Source
FMEE Decoded METAR 2020/07/05 16:30 UTC NOAA

Saint-Denis / Gillot, Reunion (FMEE) 20-53S 055-31E 25M
Jul 05, 2020 - 12:30 PM EDT / 2020.07.05 1630 UTC
Wind: from the ESE (120 degrees) at 17 MPH (15 KT):0
Visibility: greater than 7 mile(s):0
Sky conditions: mostly clear
Temperature: 71 F (22 C)
Dew Point: 60 F (16 C)
Relative Humidity: 68%
Pressure (altimeter): 30.09 in. Hg (1019 hPa)
ob: FMEE 051630Z AUTO 12015KT 9999 FEW032 22/16 Q1019 NOSIG
cycle: 16

Station Type Date Time Source
FMEE TAF 2020/07/05 12:30 UTC NOAA

TAF TAF FMEE 051100Z 0512/0618 12015KT

Example: see airport list